sensor_id;sensor_type;location;lat;lon;timestamp;P1;durP1;ratioP1;P2;durP2;ratioP2
21761;SDS011;11203;50.870;20.682;2022-08-21T00:00:16;8.82;;;7.50;;
21761;SDS011;11203;50.870;20.682;2022-08-21T00:03:07;11.95;;;7.28;;
21761;SDS011;11203;50.870;20.682;2022-08-21T00:05:38;11.38;;;6.82;;
21761;SDS011;11203;50.870;20.682;2022-08-21T00:08:09;8.90;;;6.50;;
21761;SDS011;11203;50.870;20.682;2022-08-21T00:10:35;10.07;;;7.30;;
21761;SDS011;11203;50.870;20.682;2022-08-21T00:13:03;8.70;;;7.15;;
21761;SDS011;11203;50.870;20.682;2022-08-21T00:15:31;8.82;;;6.82;;
21761;SDS011;11203;50.870;20.682;2022-08-21T00:18:00;10.00;;;7.07;;
21761;SDS011;11203;50.870;20.682;2022-08-21T00:20:28;8.30;;;7.30;;
21761;SDS011;11203;50.870;20.682;2022-08-21T00:22:54;11.55;;;7.93;;
21761;SDS011;11203;50.870;20.682;2022-08-21T00:25:20;10.38;;;7.75;;
21761;SDS011;11203;50.870;20.682;2022-08-21T00:27:47;11.27;;;7.70;;
21761;SDS011;11203;50.870;20.682;2022-08-21T00:30:14;8.05;;;7.20;;
21761;SDS011;11203;50.870;20.682;2022-08-21T00:32:42;11.60;;;7.03;;
21761;SDS011;11203;50.870;20.682;2022-08-21T00:35:10;8.02;;;6.88;;
21761;SDS011;11203;50.870;20.682;2022-08-21T00:37:41;9.60;;;7.13;;
21761;SDS011;11203;50.870;20.682;2022-08-21T00:40:09;9.60;;;6.95;;
21761;SDS011;11203;50.870;20.682;2022-08-21T00:42:40;8.50;;;6.80;;
21761;SDS011;11203;50.870;20.682;2022-08-21T00:45:07;9.60;;;6.90;;
21761;SDS011;11203;50.870;20.682;2022-08-21T00:47:34;7.30;;;6.57;;
21761;SDS011;11203;50.870;20.682;2022-08-21T00:50:00;9.00;;;6.57;;
21761;SDS011;11203;50.870;20.682;2022-08-21T00:52:30;11.77;;;6.63;;
21761;SDS011;11203;50.870;20.682;2022-08-21T00:54:59;9.70;;;7.10;;
21761;SDS011;11203;50.870;20.682;2022-08-21T00:57:30;10.02;;;6.85;;
21761;SDS011;11203;50.870;20.682;2022-08-21T01:00:07;9.70;;;6.72;;
21761;SDS011;11203;50.870;20.682;2022-08-21T01:02:41;8.57;;;6.45;;
21761;SDS011;11203;50.870;20.682;2022-08-21T01:05:07;12.18;;;6.68;;
21761;SDS011;11203;50.870;20.682;2022-08-21T01:07:34;8.35;;;6.82;;
21761;SDS011;11203;50.870;20.682;2022-08-21T01:10:01;11.25;;;6.65;;
21761;SDS011;11203;50.870;20.682;2022-08-21T01:12:30;8.18;;;6.95;;
21761;SDS011;11203;50.870;20.682;2022-08-21T01:14:57;9.43;;;7.00;;
21761;SDS011;11203;50.870;20.682;2022-08-21T01:17:24;7.85;;;7.03;;
21761;SDS011;11203;50.870;20.682;2022-08-21T01:19:51;8.80;;;6.82;;
21761;SDS011;11203;50.870;20.682;2022-08-21T01:22:22;7.97;;;7.15;;
21761;SDS011;11203;50.870;20.682;2022-08-21T01:24:49;12.38;;;7.00;;
21761;SDS011;11203;50.870;20.682;2022-08-21T01:27:15;8.00;;;6.90;;
21761;SDS011;11203;50.870;20.682;2022-08-21T01:29:43;9.23;;;7.28;;
21761;SDS011;11203;50.870;20.682;2022-08-21T01:32:35;10.52;;;7.30;;
21761;SDS011;11203;50.870;20.682;2022-08-21T01:35:02;10.07;;;7.32;;
21761;SDS011;11203;50.870;20.682;2022-08-21T01:37:29;8.98;;;7.55;;
21761;SDS011;11203;50.870;20.682;2022-08-21T01:39:55;11.63;;;7.35;;
21761;SDS011;11203;50.870;20.682;2022-08-21T01:42:21;8.95;;;7.38;;
21761;SDS011;11203;50.870;20.682;2022-08-21T01:44:47;11.98;;;7.53;;
21761;SDS011;11203;50.870;20.682;2022-08-21T01:47:14;10.10;;;7.60;;
21761;SDS011;11203;50.870;20.682;2022-08-21T01:49:41;12.30;;;8.63;;
21761;SDS011;11203;50.870;20.682;2022-08-21T01:52:09;9.63;;;7.47;;
21761;SDS011;11203;50.870;20.682;2022-08-21T01:54:36;9.65;;;8.45;;
21761;SDS011;11203;50.870;20.682;2022-08-21T01:57:03;10.63;;;7.75;;
21761;SDS011;11203;50.870;20.682;2022-08-21T01:59:30;9.25;;;7.65;;
21761;SDS011;11203;50.870;20.682;2022-08-21T02:01:57;11.88;;;8.48;;
21761;SDS011;11203;50.870;20.682;2022-08-21T02:04:23;13.48;;;7.97;;
21761;SDS011;11203;50.870;20.682;2022-08-21T02:06:49;9.80;;;8.40;;
21761;SDS011;11203;50.870;20.682;2022-08-21T02:09:16;9.15;;;8.25;;
21761;SDS011;11203;50.870;20.682;2022-08-21T02:11:43;11.15;;;8.27;;
21761;SDS011;11203;50.870;20.682;2022-08-21T02:14:09;11.00;;;8.65;;
21761;SDS011;11203;50.870;20.682;2022-08-21T02:16:39;9.68;;;8.27;;
21761;SDS011;11203;50.870;20.682;2022-08-21T02:19:07;20.17;;;14.55;;
21761;SDS011;11203;50.870;20.682;2022-08-21T02:21:34;15.73;;;10.80;;
21761;SDS011;11203;50.870;20.682;2022-08-21T02:24:00;9.25;;;8.18;;
21761;SDS011;11203;50.870;20.682;2022-08-21T02:26:27;12.80;;;8.13;;
21761;SDS011;11203;50.870;20.682;2022-08-21T02:28:53;11.02;;;8.40;;
21761;SDS011;11203;50.870;20.682;2022-08-21T02:31:19;10.95;;;8.05;;
21761;SDS011;11203;50.870;20.682;2022-08-21T02:33:45;12.30;;;8.48;;
21761;SDS011;11203;50.870;20.682;2022-08-21T02:36:11;9.75;;;8.38;;
21761;SDS011;11203;50.870;20.682;2022-08-21T02:38:39;11.27;;;8.65;;
21761;SDS011;11203;50.870;20.682;2022-08-21T02:41:09;10.63;;;8.32;;
21761;SDS011;11203;50.870;20.682;2022-08-21T02:43:40;9.60;;;7.85;;
21761;SDS011;11203;50.870;20.682;2022-08-21T02:46:07;12.13;;;8.45;;
21761;SDS011;11203;50.870;20.682;2022-08-21T02:48:36;10.00;;;7.78;;
21761;SDS011;11203;50.870;20.682;2022-08-21T02:51:08;10.68;;;7.95;;
21761;SDS011;11203;50.870;20.682;2022-08-21T02:53:36;12.18;;;7.80;;
21761;SDS011;11203;50.870;20.682;2022-08-21T02:56:04;12.55;;;8.05;;
21761;SDS011;11203;50.870;20.682;2022-08-21T02:58:38;8.65;;;7.75;;
21761;SDS011;11203;50.870;20.682;2022-08-21T03:01:08;9.18;;;7.85;;
21761;SDS011;11203;50.870;20.682;2022-08-21T03:03:36;9.02;;;8.13;;
21761;SDS011;11203;50.870;20.682;2022-08-21T03:06:06;10.05;;;7.82;;
21761;SDS011;11203;50.870;20.682;2022-08-21T03:08:33;10.13;;;8.00;;
21761;SDS011;11203;50.870;20.682;2022-08-21T03:11:00;9.77;;;8.13;;
21761;SDS011;11203;50.870;20.682;2022-08-21T03:13:27;9.95;;;8.55;;
21761;SDS011;11203;50.870;20.682;2022-08-21T03:15:54;11.60;;;8.40;;
21761;SDS011;11203;50.870;20.682;2022-08-21T03:18:20;12.43;;;9.45;;
21761;SDS011;11203;50.870;20.682;2022-08-21T03:20:47;11.98;;;8.57;;
21761;SDS011;11203;50.870;20.682;2022-08-21T03:23:15;17.27;;;12.93;;
21761;SDS011;11203;50.870;20.682;2022-08-21T03:25:43;14.70;;;10.43;;
21761;SDS011;11203;50.870;20.682;2022-08-21T03:28:12;11.00;;;7.95;;
21761;SDS011;11203;50.870;20.682;2022-08-21T03:30:44;12.60;;;8.13;;
21761;SDS011;11203;50.870;20.682;2022-08-21T03:33:12;11.07;;;9.02;;
21761;SDS011;11203;50.870;20.682;2022-08-21T03:35:38;11.85;;;8.13;;
21761;SDS011;11203;50.870;20.682;2022-08-21T03:38:06;9.68;;;7.90;;
21761;SDS011;11203;50.870;20.682;2022-08-21T03:40:33;9.32;;;8.13;;
21761;SDS011;11203;50.870;20.682;2022-08-21T03:42:59;11.32;;;8.45;;
21761;SDS011;11203;50.870;20.682;2022-08-21T03:45:25;9.82;;;8.30;;
21761;SDS011;11203;50.870;20.682;2022-08-21T03:50:25;12.43;;;7.72;;
21761;SDS011;11203;50.870;20.682;2022-08-21T03:52:55;14.30;;;9.73;;
21761;SDS011;11203;50.870;20.682;2022-08-21T03:55:22;9.75;;;8.60;;
21761;SDS011;11203;50.870;20.682;2022-08-21T03:57:48;11.00;;;8.40;;
21761;SDS011;11203;50.870;20.682;2022-08-21T04:00:15;9.13;;;8.15;;
21761;SDS011;11203;50.870;20.682;2022-08-21T04:02:42;12.23;;;8.55;;
21761;SDS011;11203;50.870;20.682;2022-08-21T04:05:08;12.02;;;8.65;;
21761;SDS011;11203;50.870;20.682;2022-08-21T04:07:37;16.08;;;8.70;;
21761;SDS011;11203;50.870;20.682;2022-08-21T04:10:04;11.90;;;8.98;;
21761;SDS011;11203;50.870;20.682;2022-08-21T04:12:32;14.13;;;9.60;;
21761;SDS011;11203;50.870;20.682;2022-08-21T04:14:58;17.85;;;12.13;;
21761;SDS011;11203;50.870;20.682;2022-08-21T04:17:26;17.00;;;13.63;;
21761;SDS011;11203;50.870;20.682;2022-08-21T04:19:52;63.50;;;42.65;;
21761;SDS011;11203;50.870;20.682;2022-08-21T04:22:19;50.65;;;32.85;;
21761;SDS011;11203;50.870;20.682;2022-08-21T04:24:45;97.90;;;65.45;;
21761;SDS011;11203;50.870;20.682;2022-08-21T04:27:11;72.68;;;50.58;;
21761;SDS011;11203;50.870;20.682;2022-08-21T04:29:38;85.97;;;56.88;;
21761;SDS011;11203;50.870;20.682;2022-08-21T04:32:04;51.08;;;33.35;;
21761;SDS011;11203;50.870;20.682;2022-08-21T04:34:30;53.67;;;39.58;;
21761;SDS011;11203;50.870;20.682;2022-08-21T04:36:56;36.92;;;26.58;;
21761;SDS011;11203;50.870;20.682;2022-08-21T04:39:23;39.33;;;26.52;;
21761;SDS011;11203;50.870;20.682;2022-08-21T04:41:49;26.73;;;15.35;;
21761;SDS011;11203;50.870;20.682;2022-08-21T04:44:15;38.15;;;23.65;;
21761;SDS011;11203;50.870;20.682;2022-08-21T04:46:41;47.58;;;25.80;;
21761;SDS011;11203;50.870;20.682;2022-08-21T04:49:07;30.17;;;17.67;;
21761;SDS011;11203;50.870;20.682;2022-08-21T04:51:34;18.48;;;12.95;;
21761;SDS011;11203;50.870;20.682;2022-08-21T04:54:07;17.73;;;11.55;;
21761;SDS011;11203;50.870;20.682;2022-08-21T04:56:41;39.08;;;23.40;;
21761;SDS011;11203;50.870;20.682;2022-08-21T04:59:13;110.32;;;62.83;;
21761;SDS011;11203;50.870;20.682;2022-08-21T05:01:52;42.33;;;27.75;;
21761;SDS011;11203;50.870;20.682;2022-08-21T05:04:22;39.65;;;26.63;;
21761;SDS011;11203;50.870;20.682;2022-08-21T05:06:52;12.85;;;11.10;;
21761;SDS011;11203;50.870;20.682;2022-08-21T05:09:23;44.72;;;32.55;;
21761;SDS011;11203;50.870;20.682;2022-08-21T05:11:50;20.45;;;15.65;;
21761;SDS011;11203;50.870;20.682;2022-08-21T05:14:17;20.15;;;16.05;;
21761;SDS011;11203;50.870;20.682;2022-08-21T05:16:45;11.98;;;9.25;;
21761;SDS011;11203;50.870;20.682;2022-08-21T05:19:11;9.15;;;7.93;;
21761;SDS011;11203;50.870;20.682;2022-08-21T05:21:39;10.48;;;8.00;;
21761;SDS011;11203;50.870;20.682;2022-08-21T05:24:08;9.50;;;8.32;;
21761;SDS011;11203;50.870;20.682;2022-08-21T05:26:34;19.83;;;13.65;;
21761;SDS011;11203;50.870;20.682;2022-08-21T05:29:02;16.02;;;11.05;;
21761;SDS011;11203;50.870;20.682;2022-08-21T05:31:28;10.88;;;9.52;;
21761;SDS011;11203;50.870;20.682;2022-08-21T05:33:55;14.35;;;8.95;;
21761;SDS011;11203;50.870;20.682;2022-08-21T05:36:21;11.85;;;8.90;;
21761;SDS011;11203;50.870;20.682;2022-08-21T05:38:48;10.82;;;8.57;;
21761;SDS011;11203;50.870;20.682;2022-08-21T05:41:14;12.88;;;9.07;;
21761;SDS011;11203;50.870;20.682;2022-08-21T05:43:40;11.60;;;8.63;;
21761;SDS011;11203;50.870;20.682;2022-08-21T05:46:06;11.43;;;8.50;;
21761;SDS011;11203;50.870;20.682;2022-08-21T05:48:33;10.45;;;8.20;;
21761;SDS011;11203;50.870;20.682;2022-08-21T05:51:05;15.57;;;9.50;;
21761;SDS011;11203;50.870;20.682;2022-08-21T05:53:36;12.27;;;9.00;;
21761;SDS011;11203;50.870;20.682;2022-08-21T05:56:03;17.45;;;10.93;;
21761;SDS011;11203;50.870;20.682;2022-08-21T05:58:31;15.20;;;9.48;;
21761;SDS011;11203;50.870;20.682;2022-08-21T06:00:59;9.02;;;7.63;;
21761;SDS011;11203;50.870;20.682;2022-08-21T06:03:28;12.35;;;8.07;;
21761;SDS011;11203;50.870;20.682;2022-08-21T06:05:59;14.95;;;7.53;;
21761;SDS011;11203;50.870;20.682;2022-08-21T06:08:26;21.42;;;9.30;;
21761;SDS011;11203;50.870;20.682;2022-08-21T06:10:53;29.75;;;10.18;;
21761;SDS011;11203;50.870;20.682;2022-08-21T06:13:22;20.67;;;9.10;;
21761;SDS011;11203;50.870;20.682;2022-08-21T06:15:49;14.25;;;8.52;;
21761;SDS011;11203;50.870;20.682;2022-08-21T06:18:15;42.47;;;12.77;;
21761;SDS011;11203;50.870;20.682;2022-08-21T06:20:43;21.58;;;13.25;;
21761;SDS011;11203;50.870;20.682;2022-08-21T06:23:09;15.98;;;8.18;;
21761;SDS011;11203;50.870;20.682;2022-08-21T06:25:35;26.00;;;7.90;;
21761;SDS011;11203;50.870;20.682;2022-08-21T06:28:02;11.35;;;8.13;;
21761;SDS011;11203;50.870;20.682;2022-08-21T06:30:33;9.80;;;7.85;;
21761;SDS011;11203;50.870;20.682;2022-08-21T06:33:00;10.02;;;7.15;;
21761;SDS011;11203;50.870;20.682;2022-08-21T06:35:27;8.45;;;7.57;;
21761;SDS011;11203;50.870;20.682;2022-08-21T06:37:54;9.52;;;6.93;;
21761;SDS011;11203;50.870;20.682;2022-08-21T06:40:22;10.15;;;6.55;;
21761;SDS011;11203;50.870;20.682;2022-08-21T06:42:48;10.27;;;7.03;;
21761;SDS011;11203;50.870;20.682;2022-08-21T06:45:14;11.80;;;7.40;;
21761;SDS011;11203;50.870;20.682;2022-08-21T06:47:40;7.35;;;6.60;;
21761;SDS011;11203;50.870;20.682;2022-08-21T06:50:06;8.63;;;6.65;;
21761;SDS011;11203;50.870;20.682;2022-08-21T06:52:34;14.25;;;8.57;;
21761;SDS011;11203;50.870;20.682;2022-08-21T06:55:01;9.13;;;6.82;;
21761;SDS011;11203;50.870;20.682;2022-08-21T06:57:29;14.23;;;7.18;;
21761;SDS011;11203;50.870;20.682;2022-08-21T06:59:56;9.05;;;7.05;;
21761;SDS011;11203;50.870;20.682;2022-08-21T07:02:22;8.38;;;7.13;;
21761;SDS011;11203;50.870;20.682;2022-08-21T07:04:48;12.07;;;7.00;;
21761;SDS011;11203;50.870;20.682;2022-08-21T07:07:14;10.05;;;7.18;;
21761;SDS011;11203;50.870;20.682;2022-08-21T07:09:40;9.52;;;7.18;;
21761;SDS011;11203;50.870;20.682;2022-08-21T07:12:06;12.85;;;7.20;;
21761;SDS011;11203;50.870;20.682;2022-08-21T07:14:32;8.50;;;7.60;;
21761;SDS011;11203;50.870;20.682;2022-08-21T07:16:59;13.07;;;7.55;;
21761;SDS011;11203;50.870;20.682;2022-08-21T07:19:25;19.73;;;13.70;;
21761;SDS011;11203;50.870;20.682;2022-08-21T07:21:53;13.05;;;8.25;;
21761;SDS011;11203;50.870;20.682;2022-08-21T07:24:24;9.18;;;6.75;;
21761;SDS011;11203;50.870;20.682;2022-08-21T07:26:50;9.70;;;6.88;;
21761;SDS011;11203;50.870;20.682;2022-08-21T07:29:16;10.45;;;7.07;;
21761;SDS011;11203;50.870;20.682;2022-08-21T07:31:44;12.38;;;7.45;;
21761;SDS011;11203;50.870;20.682;2022-08-21T07:34:10;10.82;;;7.45;;
21761;SDS011;11203;50.870;20.682;2022-08-21T07:36:39;8.18;;;7.30;;
21761;SDS011;11203;50.870;20.682;2022-08-21T07:39:04;12.80;;;8.40;;
21761;SDS011;11203;50.870;20.682;2022-08-21T07:41:31;9.40;;;7.38;;
21761;SDS011;11203;50.870;20.682;2022-08-21T07:43:58;11.98;;;8.25;;
21761;SDS011;11203;50.870;20.682;2022-08-21T07:46:25;9.90;;;7.10;;
21761;SDS011;11203;50.870;20.682;2022-08-21T07:48:52;13.40;;;8.60;;
21761;SDS011;11203;50.870;20.682;2022-08-21T07:51:21;8.65;;;7.72;;
21761;SDS011;11203;50.870;20.682;2022-08-21T07:53:53;11.30;;;7.40;;
21761;SDS011;11203;50.870;20.682;2022-08-21T07:56:23;11.80;;;7.72;;
21761;SDS011;11203;50.870;20.682;2022-08-21T07:58:49;13.70;;;7.53;;
21761;SDS011;11203;50.870;20.682;2022-08-21T08:01:15;12.10;;;8.30;;
21761;SDS011;11203;50.870;20.682;2022-08-21T08:03:41;11.77;;;7.50;;
21761;SDS011;11203;50.870;20.682;2022-08-21T08:06:07;14.27;;;7.40;;
21761;SDS011;11203;50.870;20.682;2022-08-21T08:08:37;10.90;;;7.32;;
21761;SDS011;11203;50.870;20.682;2022-08-21T08:11:05;10.32;;;7.55;;
21761;SDS011;11203;50.870;20.682;2022-08-21T08:13:37;20.02;;;9.35;;
21761;SDS011;11203;50.870;20.682;2022-08-21T08:16:06;9.43;;;7.35;;
21761;SDS011;11203;50.870;20.682;2022-08-21T08:18:33;9.68;;;7.40;;
21761;SDS011;11203;50.870;20.682;2022-08-21T08:20:59;11.98;;;7.85;;
21761;SDS011;11203;50.870;20.682;2022-08-21T08:23:25;10.13;;;7.20;;
21761;SDS011;11203;50.870;20.682;2022-08-21T08:25:52;9.43;;;7.13;;
21761;SDS011;11203;50.870;20.682;2022-08-21T08:28:18;14.43;;;8.23;;
21761;SDS011;11203;50.870;20.682;2022-08-21T08:30:45;15.77;;;10.13;;
21761;SDS011;11203;50.870;20.682;2022-08-21T08:33:12;48.38;;;24.52;;
21761;SDS011;11203;50.870;20.682;2022-08-21T08:35:39;21.40;;;8.50;;
21761;SDS011;11203;50.870;20.682;2022-08-21T08:38:07;11.73;;;6.90;;
21761;SDS011;11203;50.870;20.682;2022-08-21T08:40:41;8.90;;;6.88;;
21761;SDS011;11203;50.870;20.682;2022-08-21T08:43:31;11.65;;;7.00;;
21761;SDS011;11203;50.870;20.682;2022-08-21T08:46:04;11.10;;;6.20;;
21761;SDS011;11203;50.870;20.682;2022-08-21T08:51:49;9.70;;;6.60;;
21761;SDS011;11203;50.870;20.682;2022-08-21T08:54:26;12.52;;;7.05;;
21761;SDS011;11203;50.870;20.682;2022-08-21T08:57:10;13.43;;;9.13;;
21761;SDS011;11203;50.870;20.682;2022-08-21T08:59:48;13.65;;;8.27;;
21761;SDS011;11203;50.870;20.682;2022-08-21T09:02:21;12.25;;;7.55;;
21761;SDS011;11203;50.870;20.682;2022-08-21T09:04:52;11.38;;;6.82;;
21761;SDS011;11203;50.870;20.682;2022-08-21T09:15:32;14.70;;;8.63;;
21761;SDS011;11203;50.870;20.682;2022-08-21T09:26:23;13.77;;;7.40;;
21761;SDS011;11203;50.870;20.682;2022-08-21T09:28:54;12.10;;;7.35;;
21761;SDS011;11203;50.870;20.682;2022-08-21T09:31:31;10.25;;;7.30;;
21761;SDS011;11203;50.870;20.682;2022-08-21T09:34:09;10.63;;;7.07;;
21761;SDS011;11203;50.870;20.682;2022-08-21T09:36:39;15.60;;;7.50;;
21761;SDS011;11203;50.870;20.682;2022-08-21T09:39:26;11.00;;;8.13;;
21761;SDS011;11203;50.870;20.682;2022-08-21T09:42:03;13.00;;;7.47;;
21761;SDS011;11203;50.870;20.682;2022-08-21T09:44:33;15.20;;;8.40;;
21761;SDS011;11203;50.870;20.682;2022-08-21T09:47:06;15.18;;;7.45;;
21761;SDS011;11203;50.870;20.682;2022-08-21T09:49:34;8.95;;;7.68;;
21761;SDS011;11203;50.870;20.682;2022-08-21T09:52:20;11.52;;;8.38;;
21761;SDS011;11203;50.870;20.682;2022-08-21T09:54:54;12.10;;;7.30;;
21761;SDS011;11203;50.870;20.682;2022-08-21T09:57:28;14.88;;;9.95;;
21761;SDS011;11203;50.870;20.682;2022-08-21T10:00:10;13.85;;;8.55;;
21761;SDS011;11203;50.870;20.682;2022-08-21T10:02:55;12.40;;;7.63;;
21761;SDS011;11203;50.870;20.682;2022-08-21T10:05:37;13.30;;;6.97;;
21761;SDS011;11203;50.870;20.682;2022-08-21T10:08:15;15.98;;;7.60;;
21761;SDS011;11203;50.870;20.682;2022-08-21T10:10:44;10.82;;;7.38;;
21761;SDS011;11203;50.870;20.682;2022-08-21T10:21:34;13.98;;;7.72;;
21761;SDS011;11203;50.870;20.682;2022-08-21T10:24:38;9.57;;;7.18;;
21761;SDS011;11203;50.870;20.682;2022-08-21T10:30:11;10.77;;;7.20;;
21761;SDS011;11203;50.870;20.682;2022-08-21T10:33:02;11.55;;;7.32;;
21761;SDS011;11203;50.870;20.682;2022-08-21T10:35:50;10.13;;;7.38;;
21761;SDS011;11203;50.870;20.682;2022-08-21T10:42:02;13.57;;;11.55;;
21761;SDS011;11203;50.870;20.682;2022-08-21T10:44:44;21.63;;;16.08;;
21761;SDS011;11203;50.870;20.682;2022-08-21T10:47:32;14.27;;;7.75;;
21761;SDS011;11203;50.870;20.682;2022-08-21T10:58:37;11.50;;;7.40;;
21761;SDS011;11203;50.870;20.682;2022-08-21T11:01:24;12.75;;;7.57;;
21761;SDS011;11203;50.870;20.682;2022-08-21T11:07:06;10.25;;;7.28;;
21761;SDS011;11203;50.870;20.682;2022-08-21T11:09:50;12.43;;;7.35;;
21761;SDS011;11203;50.870;20.682;2022-08-21T11:12:26;9.15;;;7.05;;
21761;SDS011;11203;50.870;20.682;2022-08-21T11:21:02;9.73;;;7.32;;
21761;SDS011;11203;50.870;20.682;2022-08-21T11:26:34;9.45;;;6.55;;
21761;SDS011;11203;50.870;20.682;2022-08-21T11:29:21;14.32;;;7.25;;
21761;SDS011;11203;50.870;20.682;2022-08-21T11:32:03;8.35;;;6.68;;
21761;SDS011;11203;50.870;20.682;2022-08-21T11:40:44;14.18;;;7.47;;
21761;SDS011;11203;50.870;20.682;2022-08-21T11:43:41;8.68;;;7.18;;
21761;SDS011;11203;50.870;20.682;2022-08-21T11:46:22;9.65;;;7.05;;
21761;SDS011;11203;50.870;20.682;2022-08-21T11:52:53;9.20;;;6.55;;
21761;SDS011;11203;50.870;20.682;2022-08-21T11:55:32;7.47;;;6.70;;
21761;SDS011;11203;50.870;20.682;2022-08-21T11:58:20;10.68;;;6.65;;
21761;SDS011;11203;50.870;20.682;2022-08-21T12:00:58;9.80;;;6.22;;
21761;SDS011;11203;50.870;20.682;2022-08-21T12:03:42;11.45;;;6.50;;
21761;SDS011;11203;50.870;20.682;2022-08-21T12:06:43;8.50;;;6.25;;
21761;SDS011;11203;50.870;20.682;2022-08-21T12:09:23;7.80;;;6.03;;
21761;SDS011;11203;50.870;20.682;2022-08-21T12:12:01;10.30;;;6.63;;
21761;SDS011;11203;50.870;20.682;2022-08-21T12:14:49;8.68;;;6.38;;
21761;SDS011;11203;50.870;20.682;2022-08-21T12:17:18;7.22;;;6.53;;
21761;SDS011;11203;50.870;20.682;2022-08-21T12:19:59;9.77;;;7.00;;
21761;SDS011;11203;50.870;20.682;2022-08-21T12:22:52;15.30;;;7.00;;
21761;SDS011;11203;50.870;20.682;2022-08-21T12:28:39;11.82;;;6.85;;
21761;SDS011;11203;50.870;20.682;2022-08-21T12:31:16;9.45;;;8.00;;
21761;SDS011;11203;50.870;20.682;2022-08-21T12:33:53;7.35;;;6.63;;
21761;SDS011;11203;50.870;20.682;2022-08-21T12:36:34;7.68;;;6.88;;
21761;SDS011;11203;50.870;20.682;2022-08-21T12:39:11;11.30;;;6.40;;
21761;SDS011;11203;50.870;20.682;2022-08-21T12:44:30;7.70;;;6.60;;
21761;SDS011;11203;50.870;20.682;2022-08-21T12:47:06;7.50;;;6.43;;
21761;SDS011;11203;50.870;20.682;2022-08-21T12:49:56;9.10;;;6.70;;
21761;SDS011;11203;50.870;20.682;2022-08-21T12:52:48;11.73;;;7.10;;
21761;SDS011;11203;50.870;20.682;2022-08-21T12:55:28;8.80;;;7.05;;
21761;SDS011;11203;50.870;20.682;2022-08-21T12:57:58;10.27;;;7.53;;
21761;SDS011;11203;50.870;20.682;2022-08-21T13:00:26;15.45;;;8.85;;
21761;SDS011;11203;50.870;20.682;2022-08-21T13:02:55;9.68;;;7.57;;
21761;SDS011;11203;50.870;20.682;2022-08-21T13:05:33;9.38;;;6.40;;
21761;SDS011;11203;50.870;20.682;2022-08-21T13:08:05;11.27;;;7.07;;
21761;SDS011;11203;50.870;20.682;2022-08-21T13:10:33;9.05;;;7.13;;
21761;SDS011;11203;50.870;20.682;2022-08-21T13:13:10;11.38;;;7.13;;
21761;SDS011;11203;50.870;20.682;2022-08-21T13:15:47;6.93;;;5.97;;
21761;SDS011;11203;50.870;20.682;2022-08-21T13:18:51;8.35;;;6.30;;
21761;SDS011;11203;50.870;20.682;2022-08-21T13:21:30;10.38;;;7.03;;
21761;SDS011;11203;50.870;20.682;2022-08-21T13:26:55;7.90;;;6.50;;
21761;SDS011;11203;50.870;20.682;2022-08-21T13:29:26;8.95;;;5.78;;
21761;SDS011;11203;50.870;20.682;2022-08-21T13:31:58;7.35;;;6.03;;
21761;SDS011;11203;50.870;20.682;2022-08-21T13:34:36;6.60;;;5.90;;
21761;SDS011;11203;50.870;20.682;2022-08-21T13:37:04;6.32;;;5.72;;
21761;SDS011;11203;50.870;20.682;2022-08-21T13:39:35;9.90;;;5.47;;
21761;SDS011;11203;50.870;20.682;2022-08-21T13:42:10;6.40;;;5.20;;
21761;SDS011;11203;50.870;20.682;2022-08-21T13:44:44;6.32;;;5.60;;
21761;SDS011;11203;50.870;20.682;2022-08-21T13:47:15;6.93;;;5.55;;
21761;SDS011;11203;50.870;20.682;2022-08-21T13:49:45;7.15;;;5.97;;
21761;SDS011;11203;50.870;20.682;2022-08-21T13:52:20;8.07;;;5.35;;
21761;SDS011;11203;50.870;20.682;2022-08-21T13:54:54;7.60;;;5.30;;
21761;SDS011;11203;50.870;20.682;2022-08-21T13:57:40;7.88;;;5.15;;
21761;SDS011;11203;50.870;20.682;2022-08-21T14:00:18;8.93;;;5.72;;
21761;SDS011;11203;50.870;20.682;2022-08-21T14:03:02;6.40;;;5.20;;
21761;SDS011;11203;50.870;20.682;2022-08-21T14:05:37;6.25;;;4.80;;
21761;SDS011;11203;50.870;20.682;2022-08-21T14:08:18;9.00;;;5.22;;
21761;SDS011;11203;50.870;20.682;2022-08-21T14:11:00;9.77;;;4.90;;
21761;SDS011;11203;50.870;20.682;2022-08-21T14:16:28;7.05;;;4.82;;
21761;SDS011;11203;50.870;20.682;2022-08-21T14:19:15;6.15;;;4.90;;
21761;SDS011;11203;50.870;20.682;2022-08-21T14:22:26;5.25;;;4.43;;
21761;SDS011;11203;50.870;20.682;2022-08-21T14:25:02;5.55;;;4.85;;
21761;SDS011;11203;50.870;20.682;2022-08-21T14:27:51;4.95;;;4.55;;
21761;SDS011;11203;50.870;20.682;2022-08-21T14:30:22;7.40;;;4.47;;
21761;SDS011;11203;50.870;20.682;2022-08-21T14:32:57;5.90;;;5.30;;
21761;SDS011;11203;50.870;20.682;2022-08-21T14:35:26;5.35;;;4.72;;
21761;SDS011;11203;50.870;20.682;2022-08-21T14:37:52;5.82;;;4.82;;
21761;SDS011;11203;50.870;20.682;2022-08-21T14:40:22;5.63;;;5.13;;
21761;SDS011;11203;50.870;20.682;2022-08-21T14:43:02;7.72;;;5.30;;
21761;SDS011;11203;50.870;20.682;2022-08-21T14:45:30;7.45;;;4.97;;
21761;SDS011;11203;50.870;20.682;2022-08-21T14:47:59;5.65;;;5.15;;
21761;SDS011;11203;50.870;20.682;2022-08-21T14:50:30;7.20;;;5.03;;
21761;SDS011;11203;50.870;20.682;2022-08-21T14:52:56;7.50;;;5.47;;
21761;SDS011;11203;50.870;20.682;2022-08-21T14:55:22;8.48;;;5.10;;
21761;SDS011;11203;50.870;20.682;2022-08-21T14:57:49;7.50;;;5.05;;
21761;SDS011;11203;50.870;20.682;2022-08-21T15:00:19;6.60;;;4.72;;
21761;SDS011;11203;50.870;20.682;2022-08-21T15:02:51;9.30;;;4.85;;
21761;SDS011;11203;50.870;20.682;2022-08-21T15:05:17;6.18;;;5.57;;
21761;SDS011;11203;50.870;20.682;2022-08-21T15:07:45;8.88;;;5.25;;
21761;SDS011;11203;50.870;20.682;2022-08-21T15:10:11;6.85;;;5.35;;
21761;SDS011;11203;50.870;20.682;2022-08-21T15:12:37;7.90;;;5.80;;
21761;SDS011;11203;50.870;20.682;2022-08-21T15:15:04;7.90;;;5.30;;
21761;SDS011;11203;50.870;20.682;2022-08-21T15:17:32;6.13;;;4.80;;
21761;SDS011;11203;50.870;20.682;2022-08-21T15:19:59;7.57;;;6.60;;
21761;SDS011;11203;50.870;20.682;2022-08-21T15:22:25;9.75;;;5.75;;
21761;SDS011;11203;50.870;20.682;2022-08-21T15:24:51;7.30;;;4.93;;
21761;SDS011;11203;50.870;20.682;2022-08-21T15:27:18;9.80;;;7.30;;
21761;SDS011;11203;50.870;20.682;2022-08-21T15:29:44;5.65;;;4.93;;
21761;SDS011;11203;50.870;20.682;2022-08-21T15:32:16;7.20;;;5.15;;
21761;SDS011;11203;50.870;20.682;2022-08-21T15:34:53;9.00;;;5.90;;
21761;SDS011;11203;50.870;20.682;2022-08-21T15:37:21;7.05;;;5.95;;
21761;SDS011;11203;50.870;20.682;2022-08-21T15:39:51;7.00;;;5.57;;
21761;SDS011;11203;50.870;20.682;2022-08-21T15:42:18;9.50;;;6.13;;
21761;SDS011;11203;50.870;20.682;2022-08-21T15:44:46;8.13;;;5.22;;
21761;SDS011;11203;50.870;20.682;2022-08-21T15:47:17;12.63;;;6.40;;
21761;SDS011;11203;50.870;20.682;2022-08-21T15:49:47;10.70;;;6.80;;
21761;SDS011;11203;50.870;20.682;2022-08-21T15:52:15;8.88;;;6.13;;
21761;SDS011;11203;50.870;20.682;2022-08-21T15:54:44;10.98;;;8.00;;
21761;SDS011;11203;50.870;20.682;2022-08-21T15:57:12;6.43;;;5.60;;
21761;SDS011;11203;50.870;20.682;2022-08-21T15:59:43;7.07;;;6.18;;
21761;SDS011;11203;50.870;20.682;2022-08-21T16:02:17;7.03;;;5.22;;
21761;SDS011;11203;50.870;20.682;2022-08-21T16:04:48;6.80;;;5.90;;
21761;SDS011;11203;50.870;20.682;2022-08-21T16:07:14;7.35;;;5.65;;